sensor_id;sensor_type;location;lat;lon;timestamp;temperature;humidity
45319;DHT22;31057;48.498;32.260;2023-01-16T00:00:51;-0.10;99.90
45319;DHT22;31057;48.498;32.260;2023-01-16T00:02:53;-0.10;99.90
45319;DHT22;31057;48.498;32.260;2023-01-16T00:04:55;-0.10;99.90
45319;DHT22;31057;48.498;32.260;2023-01-16T00:06:57;0.10;99.90
45319;DHT22;31057;48.498;32.260;2023-01-16T00:09:00;0.40;99.90
45319;DHT22;31057;48.498;32.260;2023-01-16T00:11:02;0.20;99.90
45319;DHT22;31057;48.498;32.260;2023-01-16T00:13:04;0.00;99.90
45319;DHT22;31057;48.498;32.260;2023-01-16T00:15:07;-0.10;99.90
45319;DHT22;31057;48.498;32.260;2023-01-16T00:17:09;-0.10;99.90
45319;DHT22;31057;48.498;32.260;2023-01-16T00:19:11;-0.10;99.90
45319;DHT22;31057;48.498;32.260;2023-01-16T00:21:13;-0.10;99.90
45319;DHT22;31057;48.498;32.260;2023-01-16T00:23:15;0.10;99.90
45319;DHT22;31057;48.498;32.260;2023-01-16T00:25:18;0.20;99.90
45319;DHT22;31057;48.498;32.260;2023-01-16T00:27:19;0.00;99.90
45319;DHT22;31057;48.498;32.260;2023-01-16T00:29:21;0.00;99.90
45319;DHT22;31057;48.498;32.260;2023-01-16T00:31:24;-0.20;99.90
45319;DHT22;31057;48.498;32.260;2023-01-16T00:33:28;-0.20;99.90
45319;DHT22;31057;48.498;32.260;2023-01-16T00:35:31;-0.10;99.90
45319;DHT22;31057;48.498;32.260;2023-01-16T00:37:33;0.00;99.90
45319;DHT22;31057;48.498;32.260;2023-01-16T00:39:35;0.20;99.90
45319;DHT22;31057;48.498;32.260;2023-01-16T00:41:39;0.40;99.90
45319;DHT22;31057;48.498;32.260;2023-01-16T00:43:41;0.40;99.90
45319;DHT22;31057;48.498;32.260;2023-01-16T00:45:44;0.30;99.90
45319;DHT22;31057;48.498;32.260;2023-01-16T00:47:46;0.00;99.90
45319;DHT22;31057;48.498;32.260;2023-01-16T00:49:48;0.00;99.90
45319;DHT22;31057;48.498;32.260;2023-01-16T00:51:49;0.00;99.90
45319;DHT22;31057;48.498;32.260;2023-01-16T00:53:52;-0.10;99.90
45319;DHT22;31057;48.498;32.260;2023-01-16T00:55:54;0.40;99.90
45319;DHT22;31057;48.498;32.260;2023-01-16T00:57:56;0.40;99.90
45319;DHT22;31057;48.498;32.260;2023-01-16T00:59:58;0.10;99.90
45319;DHT22;31057;48.498;32.260;2023-01-16T01:02:00;0.20;99.90
45319;DHT22;31057;48.498;32.260;2023-01-16T01:04:02;0.00;99.90
45319;DHT22;31057;48.498;32.260;2023-01-16T01:06:09;0.00;99.90
45319;DHT22;31057;48.498;32.260;2023-01-16T01:08:12;-0.10;99.90
45319;DHT22;31057;48.498;32.260;2023-01-16T01:10:14;0.10;99.90
45319;DHT22;31057;48.498;32.260;2023-01-16T01:12:16;0.20;99.90
45319;DHT22;31057;48.498;32.260;2023-01-16T01:14:18;0.40;99.90
45319;DHT22;31057;48.498;32.260;2023-01-16T01:16:20;0.10;99.90
45319;DHT22;31057;48.498;32.260;2023-01-16T01:18:22;-0.10;99.90
45319;DHT22;31057;48.498;32.260;2023-01-16T01:20:25;-0.20;99.90
45319;DHT22;31057;48.498;32.260;2023-01-16T01:22:26;-0.20;99.90
45319;DHT22;31057;48.498;32.260;2023-01-16T01:24:28;-0.20;99.90
45319;DHT22;31057;48.498;32.260;2023-01-16T01:26:30;-0.10;99.90
45319;DHT22;31057;48.498;32.260;2023-01-16T01:28:32;0.00;99.90
45319;DHT22;31057;48.498;32.260;2023-01-16T01:30:34;0.00;99.90
45319;DHT22;31057;48.498;32.260;2023-01-16T01:32:36;0.00;99.90
45319;DHT22;31057;48.498;32.260;2023-01-16T01:34:38;-0.20;99.90
45319;DHT22;31057;48.498;32.260;2023-01-16T01:36:40;-0.20;99.90
45319;DHT22;31057;48.498;32.260;2023-01-16T01:38:42;-0.10;99.90
45319;DHT22;31057;48.498;32.260;2023-01-16T01:40:44;-0.10;99.90
45319;DHT22;31057;48.498;32.260;2023-01-16T01:42:46;0.00;99.90
45319;DHT22;31057;48.498;32.260;2023-01-16T01:45:00;0.00;99.90
45319;DHT22;31057;48.498;32.260;2023-01-16T01:47:02;0.00;99.90
45319;DHT22;31057;48.498;32.260;2023-01-16T01:49:22;0.10;99.90
45319;DHT22;31057;48.498;32.260;2023-01-16T01:51:32;0.00;99.90
45319;DHT22;31057;48.498;32.260;2023-01-16T01:53:44;-0.10;99.90
45319;DHT22;31057;48.498;32.260;2023-01-16T01:55:48;-0.10;99.90
45319;DHT22;31057;48.498;32.260;2023-01-16T01:57:54;0.00;99.90
45319;DHT22;31057;48.498;32.260;2023-01-16T02:00:18;0.00;99.90
45319;DHT22;31057;48.498;32.260;2023-01-16T02:02:23;0.10;99.90
45319;DHT22;31057;48.498;32.260;2023-01-16T02:04:30;0.10;99.90
45319;DHT22;31057;48.498;32.260;2023-01-16T02:06:40;0.00;99.90
45319;DHT22;31057;48.498;32.260;2023-01-16T02:08:44;-0.10;99.90
45319;DHT22;31057;48.498;32.260;2023-01-16T02:11:09;-0.10;99.90
45319;DHT22;31057;48.498;32.260;2023-01-16T02:13:27;-0.10;99.90
45319;DHT22;31057;48.498;32.260;2023-01-16T02:15:30;0.20;99.90
45319;DHT22;31057;48.498;32.260;2023-01-16T02:17:32;0.30;99.90
45319;DHT22;31057;48.498;32.260;2023-01-16T02:20:13;0.20;99.90
45319;DHT22;31057;48.498;32.260;2023-01-16T02:38:58;-0.10;99.90
45319;DHT22;31057;48.498;32.260;2023-01-16T02:48:21;0.30;99.90
45319;DHT22;31057;48.498;32.260;2023-01-16T02:53:48;0.20;99.90
45319;DHT22;31057;48.498;32.260;2023-01-16T02:57:35;0.10;99.90
45319;DHT22;31057;48.498;32.260;2023-01-16T02:59:40;0.00;99.90
45319;DHT22;31057;48.498;32.260;2023-01-16T03:01:46;-0.10;99.90
45319;DHT22;31057;48.498;32.260;2023-01-16T03:06:03;0.10;99.90
45319;DHT22;31057;48.498;32.260;2023-01-16T03:08:11;0.10;99.90
45319;DHT22;31057;48.498;32.260;2023-01-16T03:14:38;0.00;99.90
45319;DHT22;31057;48.498;32.260;2023-01-16T03:19:34;0.00;99.90
45319;DHT22;31057;48.498;32.260;2023-01-16T03:22:04;0.00;99.90
45319;DHT22;31057;48.498;32.260;2023-01-16T03:24:49;0.00;99.90
45319;DHT22;31057;48.498;32.260;2023-01-16T03:26:45;0.00;99.90
45319;DHT22;31057;48.498;32.260;2023-01-16T03:29:03;-0.10;99.90
45319;DHT22;31057;48.498;32.260;2023-01-16T03:31:29;-0.10;99.90
45319;DHT22;31057;48.498;32.260;2023-01-16T03:33:59;-0.10;99.90
45319;DHT22;31057;48.498;32.260;2023-01-16T03:36:10;0.00;99.90
45319;DHT22;31057;48.498;32.260;2023-01-16T03:38:16;0.40;99.90
45319;DHT22;31057;48.498;32.260;2023-01-16T03:40:24;0.20;99.90
45319;DHT22;31057;48.498;32.260;2023-01-16T03:42:48;0.00;99.90
45319;DHT22;31057;48.498;32.260;2023-01-16T03:44:56;-0.10;99.90
45319;DHT22;31057;48.498;32.260;2023-01-16T03:47:00;-0.10;99.90
45319;DHT22;31057;48.498;32.260;2023-01-16T03:49:13;-0.10;99.90
45319;DHT22;31057;48.498;32.260;2023-01-16T03:51:23;-0.10;99.90
45319;DHT22;31057;48.498;32.260;2023-01-16T03:53:30;0.00;99.90
45319;DHT22;31057;48.498;32.260;2023-01-16T03:55:41;0.10;99.90
45319;DHT22;31057;48.498;32.260;2023-01-16T03:57:50;0.20;99.90
45319;DHT22;31057;48.498;32.260;2023-01-16T03:59:54;0.00;99.90
45319;DHT22;31057;48.498;32.260;2023-01-16T04:02:18;-0.10;99.90
45319;DHT22;31057;48.498;32.260;2023-01-16T04:04:25;-0.20;99.90
45319;DHT22;31057;48.498;32.260;2023-01-16T04:06:45;-0.10;99.90
45319;DHT22;31057;48.498;32.260;2023-01-16T04:08:49;-0.10;99.90
45319;DHT22;31057;48.498;32.260;2023-01-16T04:10:52;0.00;99.90
45319;DHT22;31057;48.498;32.260;2023-01-16T04:13:04;0.00;99.90
45319;DHT22;31057;48.498;32.260;2023-01-16T04:15:07;0.30;99.90
45319;DHT22;31057;48.498;32.260;2023-01-16T04:17:09;0.10;99.90
45319;DHT22;31057;48.498;32.260;2023-01-16T04:19:13;-0.10;99.90
45319;DHT22;31057;48.498;32.260;2023-01-16T04:21:15;0.00;99.90
45319;DHT22;31057;48.498;32.260;2023-01-16T04:23:18;-0.10;99.90
45319;DHT22;31057;48.498;32.260;2023-01-16T04:25:20;-0.10;99.90
45319;DHT22;31057;48.498;32.260;2023-01-16T04:27:22;0.00;99.90
45319;DHT22;31057;48.498;32.260;2023-01-16T04:29:24;0.50;99.90
45319;DHT22;31057;48.498;32.260;2023-01-16T04:31:27;0.30;99.90
45319;DHT22;31057;48.498;32.260;2023-01-16T04:33:29;0.10;99.90
45319;DHT22;31057;48.498;32.260;2023-01-16T04:35:32;0.10;99.90
45319;DHT22;31057;48.498;32.260;2023-01-16T04:37:34;0.00;99.90
45319;DHT22;31057;48.498;32.260;2023-01-16T04:39:36;-0.10;99.90
45319;DHT22;31057;48.498;32.260;2023-01-16T04:41:38;0.00;99.90
45319;DHT22;31057;48.498;32.260;2023-01-16T04:43:42;0.00;99.90
45319;DHT22;31057;48.498;32.260;2023-01-16T04:45:43;0.10;99.90
45319;DHT22;31057;48.498;32.260;2023-01-16T04:47:48;0.30;99.90
45319;DHT22;31057;48.498;32.260;2023-01-16T04:49:50;0.20;99.90
45319;DHT22;31057;48.498;32.260;2023-01-16T04:51:52;0.10;99.90
45319;DHT22;31057;48.498;32.260;2023-01-16T04:53:54;0.10;99.90
45319;DHT22;31057;48.498;32.260;2023-01-16T04:55:56;0.10;99.90
45319;DHT22;31057;48.498;32.260;2023-01-16T04:57:58;0.10;99.90
45319;DHT22;31057;48.498;32.260;2023-01-16T05:00:00;0.20;99.90
45319;DHT22;31057;48.498;32.260;2023-01-16T05:02:02;0.30;99.90
45319;DHT22;31057;48.498;32.260;2023-01-16T05:04:05;0.20;99.90
45319;DHT22;31057;48.498;32.260;2023-01-16T05:06:07;0.50;99.90
45319;DHT22;31057;48.498;32.260;2023-01-16T05:08:10;0.30;99.90
45319;DHT22;31057;48.498;32.260;2023-01-16T05:10:18;0.30;99.90
45319;DHT22;31057;48.498;32.260;2023-01-16T05:12:20;0.20;99.90
45319;DHT22;31057;48.498;32.260;2023-01-16T05:14:22;0.20;99.90
45319;DHT22;31057;48.498;32.260;2023-01-16T05:16:24;0.20;99.90
45319;DHT22;31057;48.498;32.260;2023-01-16T05:18:26;0.80;99.90
45319;DHT22;31057;48.498;32.260;2023-01-16T05:20:28;0.50;99.90
45319;DHT22;31057;48.498;32.260;2023-01-16T05:22:30;0.30;99.90
45319;DHT22;31057;48.498;32.260;2023-01-16T05:24:32;0.30;99.90
45319;DHT22;31057;48.498;32.260;2023-01-16T05:26:34;0.30;99.90
45319;DHT22;31057;48.498;32.260;2023-01-16T05:28:36;0.30;99.90
45319;DHT22;31057;48.498;32.260;2023-01-16T05:30:38;0.20;99.90
45319;DHT22;31057;48.498;32.260;2023-01-16T05:32:45;0.40;99.90
45319;DHT22;31057;48.498;32.260;2023-01-16T05:34:47;0.50;99.90
45319;DHT22;31057;48.498;32.260;2023-01-16T05:36:49;0.40;99.90
45319;DHT22;31057;48.498;32.260;2023-01-16T05:38:51;0.30;99.90
45319;DHT22;31057;48.498;32.260;2023-01-16T05:40:53;0.20;99.90
45319;DHT22;31057;48.498;32.260;2023-01-16T05:42:55;0.20;99.90
45319;DHT22;31057;48.498;32.260;2023-01-16T05:44:57;0.30;99.90
45319;DHT22;31057;48.498;32.260;2023-01-16T05:46:59;0.40;99.90
45319;DHT22;31057;48.498;32.260;2023-01-16T05:49:00;0.40;99.90
45319;DHT22;31057;48.498;32.260;2023-01-16T05:51:03;0.70;99.90
45319;DHT22;31057;48.498;32.260;2023-01-16T05:53:05;0.40;99.90
45319;DHT22;31057;48.498;32.260;2023-01-16T05:55:07;0.30;99.90
45319;DHT22;31057;48.498;32.260;2023-01-16T05:57:22;0.30;99.90
45319;DHT22;31057;48.498;32.260;2023-01-16T05:59:24;0.30;99.90
45319;DHT22;31057;48.498;32.260;2023-01-16T06:01:26;0.30;99.90
45319;DHT22;31057;48.498;32.260;2023-01-16T06:03:28;0.50;99.90
45319;DHT22;31057;48.498;32.260;2023-01-16T06:05:30;0.40;99.90
45319;DHT22;31057;48.498;32.260;2023-01-16T08:23:03;1.20;99.90
45319;DHT22;31057;48.498;32.260;2023-01-16T08:25:06;1.40;99.90
45319;DHT22;31057;48.498;32.260;2023-01-16T08:27:08;1.40;99.90
45319;DHT22;31057;48.498;32.260;2023-01-16T08:29:10;1.50;99.90
45319;DHT22;31057;48.498;32.260;2023-01-16T08:31:13;1.70;99.90
45319;DHT22;31057;48.498;32.260;2023-01-16T08:33:15;1.90;99.90
45319;DHT22;31057;48.498;32.260;2023-01-16T08:35:17;1.60;99.90
45319;DHT22;31057;48.498;32.260;2023-01-16T08:37:19;1.50;99.90
45319;DHT22;31057;48.498;32.260;2023-01-16T08:39:21;1.50;99.90
45319;DHT22;31057;48.498;32.260;2023-01-16T08:41:23;1.50;99.90
45319;DHT22;31057;48.498;32.260;2023-01-16T08:43:44;1.60;99.90
45319;DHT22;31057;48.498;32.260;2023-01-16T08:46:07;1.60;99.90
45319;DHT22;31057;48.498;32.260;2023-01-16T08:48:31;1.60;99.90
45319;DHT22;31057;48.498;32.260;2023-01-16T08:50:52;1.40;99.90
45319;DHT22;31057;48.498;32.260;2023-01-16T08:53:13;1.40;99.90
45319;DHT22;31057;48.498;32.260;2023-01-16T08:55:15;1.30;99.90
45319;DHT22;31057;48.498;32.260;2023-01-16T08:57:17;1.60;99.90
45319;DHT22;31057;48.498;32.260;2023-01-16T08:59:19;1.60;99.90
45319;DHT22;31057;48.498;32.260;2023-01-16T09:01:21;1.40;99.90
45319;DHT22;31057;48.498;32.260;2023-01-16T09:03:24;1.50;99.90
45319;DHT22;31057;48.498;32.260;2023-01-16T09:05:26;1.50;99.90
45319;DHT22;31057;48.498;32.260;2023-01-16T09:07:28;1.40;99.90
45319;DHT22;31057;48.498;32.260;2023-01-16T09:09:31;1.30;99.90
45319;DHT22;31057;48.498;32.260;2023-01-16T09:11:34;1.50;99.90
45319;DHT22;31057;48.498;32.260;2023-01-16T09:13:55;1.50;99.90
45319;DHT22;31057;48.498;32.260;2023-01-16T09:16:02;1.40;99.90
45319;DHT22;31057;48.498;32.260;2023-01-16T09:18:05;1.40;99.90
45319;DHT22;31057;48.498;32.260;2023-01-16T09:20:07;1.40;99.90
45319;DHT22;31057;48.498;32.260;2023-01-16T09:22:09;1.40;99.90
45319;DHT22;31057;48.498;32.260;2023-01-16T09:24:12;1.40;99.90
45319;DHT22;31057;48.498;32.260;2023-01-16T09:26:13;1.50;99.90
45319;DHT22;31057;48.498;32.260;2023-01-16T09:28:16;1.70;99.90
45319;DHT22;31057;48.498;32.260;2023-01-16T09:30:20;1.60;99.90
45319;DHT22;31057;48.498;32.260;2023-01-16T09:32:23;1.60;99.90
45319;DHT22;31057;48.498;32.260;2023-01-16T09:34:26;1.50;99.90
45319;DHT22;31057;48.498;32.260;2023-01-16T09:36:28;1.40;99.90
45319;DHT22;31057;48.498;32.260;2023-01-16T09:38:33;1.50;99.90
45319;DHT22;31057;48.498;32.260;2023-01-16T09:40:36;1.60;99.90
45319;DHT22;31057;48.498;32.260;2023-01-16T09:45:21;1.70;99.90
45319;DHT22;31057;48.498;32.260;2023-01-16T09:47:24;1.60;99.90
45319;DHT22;31057;48.498;32.260;2023-01-16T09:49:42;1.60;99.90
45319;DHT22;31057;48.498;32.260;2023-01-16T09:51:54;1.50;99.90
45319;DHT22;31057;48.498;32.260;2023-01-16T09:54:19;1.60;99.90
45319;DHT22;31057;48.498;32.260;2023-01-16T09:56:44;1.80;99.90
45319;DHT22;31057;48.498;32.260;2023-01-16T09:59:12;1.80;99.90
45319;DHT22;31057;48.498;32.260;2023-01-16T10:01:26;1.80;99.90
45319;DHT22;31057;48.498;32.260;2023-01-16T10:03:31;1.70;99.90
45319;DHT22;31057;48.498;32.260;2023-01-16T10:05:47;1.60;99.90
45319;DHT22;31057;48.498;32.260;2023-01-16T10:08:08;1.70;99.90
45319;DHT22;31057;48.498;32.260;2023-01-16T10:12:37;2.00;99.90
45319;DHT22;31057;48.498;32.260;2023-01-16T10:25:48;1.70;99.90
45319;DHT22;31057;48.498;32.260;2023-01-16T10:27:55;2.00;99.90
45319;DHT22;31057;48.498;32.260;2023-01-16T10:30:14;2.00;99.90
45319;DHT22;31057;48.498;32.260;2023-01-16T10:34:37;1.80;99.90
45319;DHT22;31057;48.498;32.260;2023-01-16T10:36:45;1.70;99.90
45319;DHT22;31057;48.498;32.260;2023-01-16T10:38:53;1.70;99.90
45319;DHT22;31057;48.498;32.260;2023-01-16T10:40:58;1.70;99.90
45319;DHT22;31057;48.498;32.260;2023-01-16T10:43:04;1.80;99.90
45319;DHT22;31057;48.498;32.260;2023-01-16T10:45:32;2.00;99.90
45319;DHT22;31057;48.498;32.260;2023-01-16T10:47:53;2.00;99.90
45319;DHT22;31057;48.498;32.260;2023-01-16T10:50:16;1.90;99.90
45319;DHT22;31057;48.498;32.260;2023-01-16T10:52:37;2.10;99.90
45319;DHT22;31057;48.498;32.260;2023-01-16T10:54:39;2.20;99.90
45319;DHT22;31057;48.498;32.260;2023-01-16T10:56:41;2.10;99.90
45319;DHT22;31057;48.498;32.260;2023-01-16T10:58:47;1.90;99.90
45319;DHT22;31057;48.498;32.260;2023-01-16T11:00:50;1.90;99.90
45319;DHT22;31057;48.498;32.260;2023-01-16T11:07:35;2.00;99.90
45319;DHT22;31057;48.498;32.260;2023-01-16T11:09:39;2.00;99.90
45319;DHT22;31057;48.498;32.260;2023-01-16T11:11:50;2.00;99.90
45319;DHT22;31057;48.498;32.260;2023-01-16T11:14:34;1.90;99.90
45319;DHT22;31057;48.498;32.260;2023-01-16T11:16:55;1.80;99.90
45319;DHT22;31057;48.498;32.260;2023-01-16T11:19:19;1.80;99.90
45319;DHT22;31057;48.498;32.260;2023-01-16T11:21:27;1.90;99.90
45319;DHT22;31057;48.498;32.260;2023-01-16T11:23:38;2.00;99.90
45319;DHT22;31057;48.498;32.260;2023-01-16T11:25:40;1.80;99.90
45319;DHT22;31057;48.498;32.260;2023-01-16T11:27:42;1.90;99.90
45319;DHT22;31057;48.498;32.260;2023-01-16T11:29:44;2.00;99.90
45319;DHT22;31057;48.498;32.260;2023-01-16T11:31:57;2.00;99.90
45319;DHT22;31057;48.498;32.260;2023-01-16T11:34:02;1.80;99.90
45319;DHT22;31057;48.498;32.260;2023-01-16T11:36:07;1.80;99.90
45319;DHT22;31057;48.498;32.260;2023-01-16T11:38:13;1.80;99.90
45319;DHT22;31057;48.498;32.260;2023-01-16T11:40:19;1.80;99.90
45319;DHT22;31057;48.498;32.260;2023-01-16T11:42:22;1.80;99.90
45319;DHT22;31057;48.498;32.260;2023-01-16T11:44:42;1.90;99.90
45319;DHT22;31057;48.498;32.260;2023-01-16T11:47:03;2.00;99.90
45319;DHT22;31057;48.498;32.260;2023-01-16T11:49:17;1.90;99.90
45319;DHT22;31057;48.498;32.260;2023-01-16T11:51:21;1.80;99.90
45319;DHT22;31057;48.498;32.260;2023-01-16T11:53:33;1.80;99.90
45319;DHT22;31057;48.498;32.260;2023-01-16T11:55:42;1.80;99.90
45319;DHT22;31057;48.498;32.260;2023-01-16T12:00:01;1.90;99.90
45319;DHT22;31057;48.498;32.260;2023-01-16T12:04:24;1.90;99.90
45319;DHT22;31057;48.498;32.260;2023-01-16T12:06:47;1.80;99.90
45319;DHT22;31057;48.498;32.260;2023-01-16T12:11:15;1.70;99.90
45319;DHT22;31057;48.498;32.260;2023-01-16T12:13:56;1.70;99.90
45319;DHT22;31057;48.498;32.260;2023-01-16T12:21:25;1.80;99.90
45319;DHT22;31057;48.498;32.260;2023-01-16T12:28:17;1.80;99.90
45319;DHT22;31057;48.498;32.260;2023-01-16T12:35:26;2.00;99.90
45319;DHT22;31057;48.498;32.260;2023-01-16T12:43:13;1.90;99.90
45319;DHT22;31057;48.498;32.260;2023-01-16T12:45:31;1.80;99.90
45319;DHT22;31057;48.498;32.260;2023-01-16T12:50:45;2.00;99.90
45319;DHT22;31057;48.498;32.260;2023-01-16T12:57:58;1.90;99.90
45319;DHT22;31057;48.498;32.260;2023-01-16T13:00:36;1.90;99.90
45319;DHT22;31057;48.498;32.260;2023-01-16T13:05:27;1.90;99.90
45319;DHT22;31057;48.498;32.260;2023-01-16T13:07:33;2.10;99.90
45319;DHT22;31057;48.498;32.260;2023-01-16T13:10:01;2.10;99.90
45319;DHT22;31057;48.498;32.260;2023-01-16T13:12:27;2.10;99.90
45319;DHT22;31057;48.498;32.260;2023-01-16T13:14:53;2.10;99.90
45319;DHT22;31057;48.498;32.260;2023-01-16T13:17:06;2.00;99.90
45319;DHT22;31057;48.498;32.260;2023-01-16T13:19:13;2.00;99.90
45319;DHT22;31057;48.498;32.260;2023-01-16T13:21:24;2.10;99.90
45319;DHT22;31057;48.498;32.260;2023-01-16T13:23:33;2.10;99.90
45319;DHT22;31057;48.498;32.260;2023-01-16T13:25:46;2.10;99.90
45319;DHT22;31057;48.498;32.260;2023-01-16T13:28:06;2.00;99.90
45319;DHT22;31057;48.498;32.260;2023-01-16T13:30:19;2.00;99.90
45319;DHT22;31057;48.498;32.260;2023-01-16T13:32:28;2.00;99.90
45319;DHT22;31057;48.498;32.260;2023-01-16T13:34:48;2.00;99.90
45319;DHT22;31057;48.498;32.260;2023-01-16T13:41:53;2.10;99.90
45319;DHT22;31057;48.498;32.260;2023-01-16T13:46:23;2.00;99.90
45319;DHT22;31057;48.498;32.260;2023-01-16T13:48:33;2.00;99.90
45319;DHT22;31057;48.498;32.260;2023-01-16T13:50:36;1.90;99.90
45319;DHT22;31057;48.498;32.260;2023-01-16T13:52:41;1.90;99.90
45319;DHT22;31057;48.498;32.260;2023-01-16T13:54:45;2.10;99.90
45319;DHT22;31057;48.498;32.260;2023-01-16T13:57:00;2.20;99.90
45319;DHT22;31057;48.498;32.260;2023-01-16T13:59:06;2.10;99.90
45319;DHT22;31057;48.498;32.260;2023-01-16T14:06:23;1.90;99.90
45319;DHT22;31057;48.498;32.260;2023-01-16T14:15:23;2.30;99.90
45319;DHT22;31057;48.498;32.260;2023-01-16T14:20:02;2.10;99.90
45319;DHT22;31057;48.498;32.260;2023-01-16T14:22:05;2.00;99.90
45319;DHT22;31057;48.498;32.260;2023-01-16T16:28:43;2.10;99.90
45319;DHT22;31057;48.498;32.260;2023-01-16T16:30:45;2.20;99.90
45319;DHT22;31057;48.498;32.260;2023-01-16T16:32:50;2.10;99.90
45319;DHT22;31057;48.498;32.260;2023-01-16T16:34:57;2.00;99.90
45319;DHT22;31057;48.498;32.260;2023-01-16T16:37:01;2.30;99.90
45319;DHT22;31057;48.498;32.260;2023-01-16T16:39:04;2.10;99.90
45319;DHT22;31057;48.498;32.260;2023-01-16T16:41:42;2.10;99.90
45319;DHT22;31057;48.498;32.260;2023-01-16T16:44:08;2.00;99.90
45319;DHT22;31057;48.498;32.260;2023-01-16T16:46:30;2.00;99.90
45319;DHT22;31057;48.498;32.260;2023-01-16T16:48:32;2.10;99.90
45319;DHT22;31057;48.498;32.260;2023-01-16T16:50:36;2.20;99.90
45319;DHT22;31057;48.498;32.260;2023-01-16T16:52:44;2.40;99.90
45319;DHT22;31057;48.498;32.260;2023-01-16T16:54:54;2.20;99.90
45319;DHT22;31057;48.498;32.260;2023-01-16T16:56:58;2.00;99.90
45319;DHT22;31057;48.498;32.260;2023-01-16T16:59:00;2.00;99.90
45319;DHT22;31057;48.498;32.260;2023-01-16T17:01:15;1.90;99.90
45319;DHT22;31057;48.498;32.260;2023-01-16T17:03:20;1.90;99.90
45319;DHT22;31057;48.498;32.260;2023-01-16T17:05:23;2.20;99.90
45319;DHT22;31057;48.498;32.260;2023-01-16T17:07:25;2.10;99.90
45319;DHT22;31057;48.498;32.260;2023-01-16T17:09:28;2.00;99.90
45319;DHT22;31057;48.498;32.260;2023-01-16T17:11:33;2.00;99.90
45319;DHT22;31057;48.498;32.260;2023-01-16T17:13:34;2.00;99.90
45319;DHT22;31057;48.498;32.260;2023-01-16T17:15:36;1.90;99.90
45319;DHT22;31057;48.498;32.260;2023-01-16T17:17:42;1.90;99.90
45319;DHT22;31057;48.498;32.260;2023-01-16T17:19:46;2.00;99.90
45319;DHT22;31057;48.498;32.260;2023-01-16T17:21:48;2.10;99.90
45319;DHT22;31057;48.498;32.260;2023-01-16T17:23:50;2.10;99.90
45319;DHT22;31057;48.498;32.260;2023-01-16T17:25:52;2.00;99.90
45319;DHT22;31057;48.498;32.260;2023-01-16T17:27:54;2.00;99.90
45319;DHT22;31057;48.498;32.260;2023-01-16T17:29:57;2.00;99.90
45319;DHT22;31057;48.498;32.260;2023-01-16T17:32:00;2.00;99.90
45319;DHT22;31057;48.498;32.260;2023-01-16T17:34:15;2.10;99.90
45319;DHT22;31057;48.498;32.260;2023-01-16T17:36:22;2.10;99.90
45319;DHT22;31057;48.498;32.260;2023-01-16T17:38:25;2.30;99.90
45319;DHT22;31057;48.498;32.260;2023-01-16T17:40:27;2.20;99.90
45319;DHT22;31057;48.498;32.260;2023-01-16T17:42:29;2.10;99.90
45319;DHT22;31057;48.498;32.260;2023-01-16T17:44:50;2.10;99.90
45319;DHT22;31057;48.498;32.260;2023-01-16T17:47:12;2.10;99.90
45319;DHT22;31057;48.498;32.260;2023-01-16T17:49:14;2.20;99.90
45319;DHT22;31057;48.498;32.260;2023-01-16T17:51:16;2.30;99.90
45319;DHT22;31057;48.498;32.260;2023-01-16T17:53:25;2.30;99.90
45319;DHT22;31057;48.498;32.260;2023-01-16T17:55:27;2.30;99.90
45319;DHT22;31057;48.498;32.260;2023-01-16T17:57:48;2.10;99.90
45319;DHT22;31057;48.498;32.260;2023-01-16T17:59:52;2.20;99.90
45319;DHT22;31057;48.498;32.260;2023-01-16T18:18:50;2.20;99.90
45319;DHT22;31057;48.498;32.260;2023-01-16T18:20:52;2.30;99.90
45319;DHT22;31057;48.498;32.260;2023-01-16T18:23:14;2.30;99.90
45319;DHT22;31057;48.498;32.260;2023-01-16T18:25:19;2.30;99.90
45319;DHT22;31057;48.498;32.260;2023-01-16T18:27:22;2.50;99.90
45319;DHT22;31057;48.498;32.260;2023-01-16T18:29:24;2.40;99.90
45319;DHT22;31057;48.498;32.260;2023-01-16T18:31:26;2.40;99.90
45319;DHT22;31057;48.498;32.260;2023-01-16T18:33:28;2.30;99.90
45319;DHT22;31057;48.498;32.260;2023-01-16T18:35:30;2.30;99.90
45319;DHT22;31057;48.498;32.260;2023-01-16T18:37:36;2.30;99.90
45319;DHT22;31057;48.498;32.260;2023-01-16T18:39:38;2.30;99.90
45319;DHT22;31057;48.498;32.260;2023-01-16T18:41:59;2.30;99.90
45319;DHT22;31057;48.498;32.260;2023-01-16T18:44:20;2.50;99.90
45319;DHT22;31057;48.498;32.260;2023-01-16T18:46:41;2.50;99.90
45319;DHT22;31057;48.498;32.260;2023-01-16T18:49:01;2.50;99.90
45319;DHT22;31057;48.498;32.260;2023-01-16T18:51:22;2.40;99.90
45319;DHT22;31057;48.498;32.260;2023-01-16T18:53:45;2.40;99.90
45319;DHT22;31057;48.498;32.260;2023-01-16T18:56:22;2.40;99.90
45319;DHT22;31057;48.498;32.260;2023-01-16T18:58:43;2.40;99.90
45319;DHT22;31057;48.498;32.260;2023-01-16T19:01:04;2.40;99.90
45319;DHT22;31057;48.498;32.260;2023-01-16T19:03:24;2.50;99.90
45319;DHT22;31057;48.498;32.260;2023-01-16T19:05:26;2.60;99.90
45319;DHT22;31057;48.498;32.260;2023-01-16T19:07:30;2.50;99.90
45319;DHT22;31057;48.498;32.260;2023-01-16T19:09:35;2.40;99.90
45319;DHT22;31057;48.498;32.260;2023-01-16T19:11:37;2.40;99.90
45319;DHT22;31057;48.498;32.260;2023-01-16T19:13:39;2.40;99.90
45319;DHT22;31057;48.498;32.260;2023-01-16T19:15:43;2.40;99.90
45319;DHT22;31057;48.498;32.260;2023-01-16T19:18:03;2.40;99.90
45319;DHT22;31057;48.498;32.260;2023-01-16T19:20:05;2.50;99.90
45319;DHT22;31057;48.498;32.260;2023-01-16T19:22:08;2.60;99.90
45319;DHT22;31057;48.498;32.260;2023-01-16T19:24:12;2.50;99.90
45319;DHT22;31057;48.498;32.260;2023-01-16T19:26:14;2.40;99.90
45319;DHT22;31057;48.498;32.260;2023-01-16T19:28:16;2.50;99.90
45319;DHT22;31057;48.498;32.260;2023-01-16T19:30:18;2.40;99.90
45319;DHT22;31057;48.498;32.260;2023-01-16T19:32:21;2.40;99.90
45319;DHT22;31057;48.498;32.260;2023-01-16T19:34:23;2.50;99.90
45319;DHT22;31057;48.498;32.260;2023-01-16T19:36:27;2.50;99.90
45319;DHT22;31057;48.498;32.260;2023-01-16T19:38:29;2.60;99.90
45319;DHT22;31057;48.498;32.260;2023-01-16T19:40:30;2.60;99.90
45319;DHT22;31057;48.498;32.260;2023-01-16T19:42:45;2.50;99.90
45319;DHT22;31057;48.498;32.260;2023-01-16T19:45:07;2.50;99.90
45319;DHT22;31057;48.498;32.260;2023-01-16T19:47:28;2.40;99.90
45319;DHT22;31057;48.498;32.260;2023-01-16T19:49:31;2.40;99.90
45319;DHT22;31057;48.498;32.260;2023-01-16T19:51:33;2.40;99.90
45319;DHT22;31057;48.498;32.260;2023-01-16T19:53:36;2.40;99.90
45319;DHT22;31057;48.498;32.260;2023-01-16T19:55:38;2.50;99.90
45319;DHT22;31057;48.498;32.260;2023-01-16T19:57:40;2.40;99.90
45319;DHT22;31057;48.498;32.260;2023-01-16T19:59:42;2.70;99.90
45319;DHT22;31057;48.498;32.260;2023-01-16T20:02:04;2.60;99.90
45319;DHT22;31057;48.498;32.260;2023-01-16T20:04:06;2.50;99.90